Time;durP1;ratioP1;P1;durP2;ratioP2;P2;SDS_P1;SDS_P2;PMS_P1;PMS_P2;Temp;Humidity;BMP_temperature;BMP_pressure;BME280_temperature;BME280_humidity;BME280_pressure;Samples;Min_cycle;Max_cycle;Signal;HPM_P1;HPM_P2
2022/03/07 00:00:40;;;;;;;;;;;-1.60;99.90;;;;;;4988325;28;20160;-74
2022/03/07 00:03:05;;;;;;;;;;;-1.70;99.90;;;;;;4988051;28;19961;-74
2022/03/07 00:05:31;;;;;;;;;;;-1.70;99.90;;;;;;4987818;28;19930;-75
2022/03/07 00:07:57;;;;;;;;;;;-1.80;99.90;;;;;;4960934;28;19984;-74
2022/03/07 00:10:22;;;;;;;;;;;-1.90;99.90;;;;;;4975643;28;19925;-74
2022/03/07 00:12:48;;;;;;;;;;;-1.90;99.90;;;;;;4958758;28;19928;-74
2022/03/07 00:15:15;;;;;;;;;;;-1.90;99.90;;;;;;4959195;28;19971;-75
2022/03/07 00:17:40;;;;;;;;;;;-2.00;99.90;;;;;;4951330;28;19926;-74
2022/03/07 00:20:06;;;;;;;;;;;-2.00;99.90;;;;;;4987792;28;19976;-75
2022/03/07 00:22:32;;;;;;;;;;;-2.00;99.90;;;;;;4955348;28;20296;-75
2022/03/07 00:24:57;;;;;;;;;;;-2.10;99.90;;;;;;4988267;28;19927;-75
2022/03/07 00:27:23;;;;;;;;;;;-2.10;99.90;;;;;;4972459;28;19930;-74
2022/03/07 00:29:48;;;;;;;;;;;-2.10;99.90;;;;;;4987490;28;19929;-74
2022/03/07 00:32:14;;;;;;;;;;;-2.10;99.90;;;;;;4991318;28;19926;-75
2022/03/07 00:34:39;;;;;;;;;;;-2.20;99.90;;;;;;4991477;28;19926;-75
2022/03/07 00:37:05;;;;;;;;;;;-2.20;99.90;;;;;;4959347;28;19929;-74
2022/03/07 00:39:31;;;;;;;;;;;-2.30;99.90;;;;;;4976394;28;19997;-74
2022/03/07 00:41:56;;;;;;;;;;;-2.30;99.90;;;;;;4962565;28;20084;-75
2022/03/07 00:44:22;;;;;;;;;;;-2.20;99.90;;;;;;4941663;29;19931;-74
2022/03/07 00:46:47;;;;;;;;;;;-2.20;99.90;;;;;;4948126;28;19922;-74
2022/03/07 00:49:13;;;;;;;;;;;-2.20;99.90;;;;;;4975182;28;20332;-74
2022/03/07 00:51:38;;;;;;;;;;;-2.20;99.90;;;;;;4975031;28;19922;-74
2022/03/07 00:54:04;;;;;;;;;;;-2.30;99.90;;;;;;4959074;28;20029;-74
2022/03/07 00:56:29;;;;;;;;;;;-2.30;99.90;;;;;;4971756;28;20367;-73
2022/03/07 00:58:55;;;;;;;;;;;-2.30;99.90;;;;;;4963384;28;19928;-73
2022/03/07 01:01:20;;;;;;;;;;;-2.20;99.90;;;;;;4962518;28;19922;-73
2022/03/07 01:03:46;;;;;;;;;;;-2.30;99.90;;;;;;4961752;28;19980;-75
2022/03/07 01:06:11;;;;;;;;;;;-2.30;99.90;;;;;;4961924;28;19934;-73
2022/03/07 01:08:37;;;;;;;;;;;-2.30;99.90;;;;;;4952653;28;19922;-74
2022/03/07 01:11:03;;;;;;;;;;;-2.30;99.90;;;;;;4961363;28;19972;-74
2022/03/07 01:13:29;;;;;;;;;;;-2.20;99.90;;;;;;4962003;28;19921;-74
2022/03/07 01:15:54;;;;;;;;;;;-2.20;99.90;;;;;;4962039;28;20369;-75
2022/03/07 01:18:20;;;;;;;;;;;-2.10;99.90;;;;;;4950586;29;19922;-73
2022/03/07 01:20:45;;;;;;;;;;;-2.20;99.90;;;;;;4939449;29;19922;-73
2022/03/07 01:23:11;;;;;;;;;;;-2.30;99.90;;;;;;4939113;29;19977;-73
2022/03/07 01:25:36;;;;;;;;;;;-2.30;99.90;;;;;;4970350;28;19926;-73
2022/03/07 01:28:02;;;;;;;;;;;-2.40;99.90;;;;;;4972304;28;19976;-73
2022/03/07 01:30:27;;;;;;;;;;;-2.50;99.90;;;;;;4990614;28;19988;-74
2022/03/07 01:32:53;;;;;;;;;;;-2.50;99.90;;;;;;4991783;28;19922;-73
2022/03/07 01:35:18;;;;;;;;;;;-2.60;99.90;;;;;;4990807;28;19922;-74
2022/03/07 01:37:44;;;;;;;;;;;-2.60;99.90;;;;;;4961211;28;19965;-73
2022/03/07 01:40:10;;;;;;;;;;;-2.70;99.90;;;;;;4961902;28;19928;-73
2022/03/07 01:42:36;;;;;;;;;;;-2.70;99.90;;;;;;4976720;28;19922;-74
2022/03/07 01:45:12;;;;;;;;;;;-2.70;99.90;;;;;;4961363;28;19929;-73
2022/03/07 01:47:38;;;;;;;;;;;-2.80;99.90;;;;;;4992598;28;19922;-73
2022/03/07 01:50:05;;;;;;;;;;;-2.80;99.90;;;;;;4940388;29;19938;-74
2022/03/07 01:52:32;;;;;;;;;;;-2.80;99.90;;;;;;4971531;28;19922;-73
2022/03/07 01:54:58;;;;;;;;;;;-2.80;99.90;;;;;;4971355;28;19984;-74
2022/03/07 01:57:24;;;;;;;;;;;-2.70;99.90;;;;;;4955829;28;20389;-74
2022/03/07 01:59:49;;;;;;;;;;;-2.70;99.90;;;;;;4939845;28;20373;-73
2022/03/07 02:02:15;;;;;;;;;;;-2.70;99.90;;;;;;4939739;29;19923;-73
2022/03/07 02:04:40;;;;;;;;;;;-2.70;99.90;;;;;;4938621;29;19953;-74
2022/03/07 02:07:06;;;;;;;;;;;-2.80;99.90;;;;;;4951164;28;19922;-73
2022/03/07 02:09:31;;;;;;;;;;;-2.80;99.90;;;;;;4990093;28;19926;-74
2022/03/07 02:11:57;;;;;;;;;;;-2.80;99.90;;;;;;4970579;28;19980;-73
2022/03/07 02:14:22;;;;;;;;;;;-2.90;99.90;;;;;;4954002;29;19927;-74
2022/03/07 02:16:48;;;;;;;;;;;-2.90;99.90;;;;;;4938623;29;19923;-74
2022/03/07 02:19:14;;;;;;;;;;;-3.00;99.90;;;;;;4967844;28;19922;-74
2022/03/07 02:21:44;;;;;;;;;;;-3.00;99.90;;;;;;4961301;28;19979;-75
2022/03/07 02:24:10;;;;;;;;;;;-3.00;99.90;;;;;;4960315;28;20289;-75
2022/03/07 02:26:36;;;;;;;;;;;-3.00;99.90;;;;;;4976211;28;19926;-75
2022/03/07 02:29:01;;;;;;;;;;;-3.00;99.90;;;;;;4950941;28;19930;-75
2022/03/07 02:31:29;;;;;;;;;;;-3.00;99.90;;;;;;4961223;28;19922;-75
2022/03/07 02:33:55;;;;;;;;;;;-3.00;99.90;;;;;;4961126;28;19972;-75
2022/03/07 02:36:20;;;;;;;;;;;-3.00;99.90;;;;;;4953109;28;20497;-75
2022/03/07 02:38:46;;;;;;;;;;;-2.90;99.90;;;;;;4959128;28;19921;-75
2022/03/07 02:41:12;;;;;;;;;;;-3.00;99.90;;;;;;4989913;28;20024;-75
2022/03/07 02:43:37;;;;;;;;;;;-3.00;99.90;;;;;;4989851;28;19926;-75
2022/03/07 02:46:03;;;;;;;;;;;-3.00;99.90;;;;;;4989889;28;20396;-74
2022/03/07 02:48:29;;;;;;;;;;;-3.00;99.90;;;;;;4989537;28;19922;-75
2022/03/07 02:50:57;;;;;;;;;;;-3.00;99.90;;;;;;4990368;28;19928;-75
2022/03/07 02:53:23;;;;;;;;;;;-3.00;99.90;;;;;;4962166;28;19976;-74
2022/03/07 02:55:48;;;;;;;;;;;-3.00;99.90;;;;;;4958853;28;20381;-75
2022/03/07 02:58:14;;;;;;;;;;;-3.10;99.90;;;;;;4951239;29;19929;-75
2022/03/07 03:00:39;;;;;;;;;;;-3.10;99.90;;;;;;4938556;29;19926;-75
2022/03/07 03:03:05;;;;;;;;;;;-3.20;99.90;;;;;;4937693;29;19929;-74
2022/03/07 03:05:30;;;;;;;;;;;-3.10;99.90;;;;;;4951468;28;20304;-75
2022/03/07 03:07:56;;;;;;;;;;;-3.10;99.90;;;;;;4945681;28;19922;-75
2022/03/07 03:10:22;;;;;;;;;;;-3.10;99.90;;;;;;4960277;28;19925;-75
2022/03/07 03:12:48;;;;;;;;;;;-3.10;99.90;;;;;;4960161;28;20008;-75
2022/03/07 03:15:14;;;;;;;;;;;-3.10;99.90;;;;;;4959846;28;20281;-74
2022/03/07 03:17:40;;;;;;;;;;;-3.20;99.90;;;;;;4959032;28;19941;-74
2022/03/07 03:20:06;;;;;;;;;;;-3.20;99.90;;;;;;4988937;28;20429;-75
2022/03/07 03:22:32;;;;;;;;;;;-3.30;99.90;;;;;;4956781;28;20009;-76
2022/03/07 03:24:58;;;;;;;;;;;-3.30;99.90;;;;;;4956974;28;19926;-74
2022/03/07 03:27:23;;;;;;;;;;;-3.40;99.90;;;;;;4989071;28;19922;-75
2022/03/07 03:29:49;;;;;;;;;;;-3.40;99.90;;;;;;4972869;28;19973;-75
2022/03/07 03:32:15;;;;;;;;;;;-3.50;99.90;;;;;;4960289;28;19922;-75
2022/03/07 03:34:41;;;;;;;;;;;-3.50;99.90;;;;;;4947831;29;20341;-75
2022/03/07 03:37:06;;;;;;;;;;;-3.50;99.90;;;;;;4964110;28;19984;-75
2022/03/07 03:39:32;;;;;;;;;;;-3.60;99.90;;;;;;4941722;29;19927;-75
2022/03/07 03:41:57;;;;;;;;;;;-3.60;99.90;;;;;;4939364;28;20012;-75
2022/03/07 03:44:23;;;;;;;;;;;-3.60;99.90;;;;;;4975933;28;19930;-75
2022/03/07 03:46:49;;;;;;;;;;;-3.60;99.90;;;;;;4960150;28;19925;-75
2022/03/07 03:49:14;;;;;;;;;;;-3.60;99.90;;;;;;4944362;29;19929;-74
2022/03/07 03:51:40;;;;;;;;;;;-3.70;99.90;;;;;;4967890;28;20409;-75
2022/03/07 03:54:05;;;;;;;;;;;-3.70;99.90;;;;;;4939769;29;19923;-75
2022/03/07 03:56:31;;;;;;;;;;;-3.80;99.90;;;;;;4937970;29;19970;-75
2022/03/07 03:58:56;;;;;;;;;;;-3.70;99.90;;;;;;4958253;28;20245;-75
2022/03/07 04:01:22;;;;;;;;;;;-3.80;99.90;;;;;;4960261;28;19933;-75
2022/03/07 04:03:48;;;;;;;;;;;-3.90;99.90;;;;;;4940169;28;19929;-75
2022/03/07 04:06:13;;;;;;;;;;;-3.90;99.90;;;;;;4946935;28;19925;-75
2022/03/07 04:08:41;;;;;;;;;;;-3.90;99.90;;;;;;4952381;29;20013;-74
2022/03/07 04:11:07;;;;;;;;;;;-3.90;99.90;;;;;;4957328;29;19930;-74
2022/03/07 04:13:32;;;;;;;;;;;-3.90;99.90;;;;;;4940958;29;19923;-75
2022/03/07 04:15:58;;;;;;;;;;;-4.00;99.90;;;;;;4970764;28;19925;-75
2022/03/07 04:18:23;;;;;;;;;;;-4.00;99.90;;;;;;4992749;28;19922;-75
2022/03/07 04:20:49;;;;;;;;;;;-4.00;99.90;;;;;;4961601;28;20230;-73
2022/03/07 04:23:20;;;;;;;;;;;-3.90;99.90;;;;;;4959770;28;19929;-75
2022/03/07 04:25:47;;;;;;;;;;;-4.00;99.90;;;;;;4960009;28;19933;-75
2022/03/07 04:28:13;;;;;;;;;;;-4.00;99.90;;;;;;4962194;28;19926;-75
2022/03/07 04:30:39;;;;;;;;;;;-4.00;99.90;;;;;;4959783;28;19973;-75
2022/03/07 04:33:05;;;;;;;;;;;-4.00;99.90;;;;;;4991941;28;20373;-75
2022/03/07 04:35:30;;;;;;;;;;;-4.10;99.90;;;;;;4959914;28;20002;-75
2022/03/07 04:37:56;;;;;;;;;;;-4.10;99.90;;;;;;4961519;28;20012;-75
2022/03/07 04:40:22;;;;;;;;;;;-4.10;99.90;;;;;;4964074;28;19932;-74
2022/03/07 04:42:47;;;;;;;;;;;-4.00;99.90;;;;;;4979741;28;19922;-75
2022/03/07 04:45:13;;;;;;;;;;;-3.90;99.90;;;;;;4957607;28;19926;-75
2022/03/07 04:47:39;;;;;;;;;;;-3.80;99.90;;;;;;4963792;28;19922;-75
2022/03/07 04:50:06;;;;;;;;;;;-3.80;99.90;;;;;;4943239;29;19950;-75
2022/03/07 04:52:32;;;;;;;;;;;-3.70;99.90;;;;;;4952652;28;19960;-75
2022/03/07 04:54:57;;;;;;;;;;;-3.70;99.90;;;;;;4963532;28;19946;-75
2022/03/07 04:57:23;;;;;;;;;;;-3.70;99.90;;;;;;4963914;28;20316;-75
2022/03/07 04:59:48;;;;;;;;;;;-3.60;99.90;;;;;;4946014;29;20285;-74
2022/03/07 05:02:14;;;;;;;;;;;-3.50;99.90;;;;;;4946664;28;19922;-75
2022/03/07 05:04:42;;;;;;;;;;;-3.50;99.90;;;;;;4963329;28;20297;-75
2022/03/07 05:07:08;;;;;;;;;;;-3.40;99.90;;;;;;4950279;28;19922;-75
2022/03/07 05:09:34;;;;;;;;;;;-3.30;99.90;;;;;;4941984;29;19922;-75
2022/03/07 05:11:59;;;;;;;;;;;-3.30;99.90;;;;;;4952652;28;19922;-75
2022/03/07 05:14:25;;;;;;;;;;;-3.30;99.90;;;;;;4992082;28;20101;-75
2022/03/07 05:16:51;;;;;;;;;;;-3.30;99.90;;;;;;4991087;28;19922;-75
2022/03/07 05:19:16;;;;;;;;;;;-3.40;99.90;;;;;;4941853;29;19923;-75
2022/03/07 05:21:42;;;;;;;;;;;-3.50;99.90;;;;;;4941260;29;19926;-75
2022/03/07 05:24:09;;;;;;;;;;;-3.50;99.90;;;;;;4969889;28;20288;-75
2022/03/07 05:26:35;;;;;;;;;;;-3.50;99.90;;;;;;4962056;28;19926;-75
2022/03/07 05:29:00;;;;;;;;;;;-3.60;99.90;;;;;;4963604;28;20334;-75
2022/03/07 05:31:26;;;;;;;;;;;-3.60;99.90;;;;;;4960191;28;19930;-75
2022/03/07 05:33:52;;;;;;;;;;;-3.60;99.90;;;;;;4991653;28;20303;-75
2022/03/07 05:36:17;;;;;;;;;;;-3.60;99.90;;;;;;4962323;28;19929;-75
2022/03/07 05:38:43;;;;;;;;;;;-3.50;99.90;;;;;;4962078;28;20339;-75
2022/03/07 05:41:08;;;;;;;;;;;-3.40;99.90;;;;;;4962146;28;19930;-75
2022/03/07 05:43:34;;;;;;;;;;;-3.40;99.90;;;;;;4960014;28;20383;-75
2022/03/07 05:46:00;;;;;;;;;;;-3.50;99.90;;;;;;4972584;28;19953;-75
2022/03/07 05:48:25;;;;;;;;;;;-3.50;99.90;;;;;;4961895;28;19922;-75
2022/03/07 05:50:51;;;;;;;;;;;-3.50;99.90;;;;;;4962219;28;19969;-75
2022/03/07 05:53:21;;;;;;;;;;;-3.60;99.90;;;;;;4961857;28;19929;-75
2022/03/07 05:55:48;;;;;;;;;;;-3.60;99.90;;;;;;4959528;28;20325;-75
2022/03/07 05:58:13;;;;;;;;;;;-3.70;99.90;;;;;;4992324;28;19922;-75
2022/03/07 06:00:39;;;;;;;;;;;-3.70;99.90;;;;;;4995492;28;20435;-75
2022/03/07 06:03:05;;;;;;;;;;;-3.70;99.90;;;;;;4953106;28;19929;-75
2022/03/07 06:05:31;;;;;;;;;;;-3.60;99.90;;;;;;4962619;28;19925;-75
2022/03/07 06:07:57;;;;;;;;;;;-3.70;99.90;;;;;;4959866;28;19972;-75
2022/03/07 06:10:22;;;;;;;;;;;-3.70;99.90;;;;;;4961325;28;19929;-75
2022/03/07 06:12:48;;;;;;;;;;;-3.60;99.90;;;;;;4960972;28;19925;-75
2022/03/07 06:15:13;;;;;;;;;;;-3.50;99.90;;;;;;4940407;29;19937;-75
2022/03/07 06:17:47;;;;;;;;;;;-3.60;99.90;;;;;;4968156;28;19926;-75
2022/03/07 06:20:13;;;;;;;;;;;-3.50;99.90;;;;;;4990559;28;19922;-75
2022/03/07 06:22:38;;;;;;;;;;;-3.50;99.90;;;;;;4951698;28;19929;-75
2022/03/07 06:25:05;;;;;;;;;;;-3.60;99.90;;;;;;4952579;29;19931;-76
2022/03/07 06:27:31;;;;;;;;;;;-3.50;99.90;;;;;;4962941;28;19922;-75
2022/03/07 06:29:56;;;;;;;;;;;-3.50;99.90;;;;;;4947615;28;19929;-75
2022/03/07 06:32:23;;;;;;;;;;;-3.50;99.90;;;;;;4948560;28;19930;-76
2022/03/07 06:34:49;;;;;;;;;;;-3.40;99.90;;;;;;4947290;28;19922;-75
2022/03/07 06:37:15;;;;;;;;;;;-3.30;99.90;;;;;;4957932;28;19922;-73
2022/03/07 06:39:40;;;;;;;;;;;-3.30;99.90;;;;;;4941490;28;19929;-74
2022/03/07 06:42:06;;;;;;;;;;;-3.20;99.90;;;;;;4941108;28;19922;-74
2022/03/07 06:44:32;;;;;;;;;;;-3.10;99.90;;;;;;4989651;28;19926;-76
2022/03/07 06:46:59;;;;;;;;;;;-3.00;99.90;;;;;;4965598;28;19928;-74
2022/03/07 06:49:24;;;;;;;;;;;-2.90;99.90;;;;;;4989339;28;19929;-74
2022/03/07 06:51:50;;;;;;;;;;;-2.90;99.90;;;;;;4989112;28;19922;-74
2022/03/07 06:54:16;;;;;;;;;;;-2.80;99.90;;;;;;4956979;28;19980;-74
2022/03/07 06:56:41;;;;;;;;;;;-2.80;99.90;;;;;;4988599;28;20411;-74
2022/03/07 06:59:07;;;;;;;;;;;-2.70;99.90;;;;;;4956870;28;19922;-74
2022/03/07 07:01:33;;;;;;;;;;;-2.70;99.90;;;;;;4957001;28;19922;-75
2022/03/07 07:03:58;;;;;;;;;;;-2.70;99.90;;;;;;4990481;28;19929;-74
2022/03/07 07:06:26;;;;;;;;;;;-2.70;99.90;;;;;;4990309;28;20369;-73
2022/03/07 07:08:52;;;;;;;;;;;-2.50;99.90;;;;;;4949361;29;19930;-74
2022/03/07 07:11:17;;;;;;;;;;;-2.60;99.90;;;;;;4955067;28;20007;-73
2022/03/07 07:13:46;;;;;;;;;;;-2.50;99.90;;;;;;4988087;28;19922;-76
2022/03/07 07:16:16;;;;;;;;;;;-2.50;99.90;;;;;;4956224;28;19996;-75
2022/03/07 07:18:42;;;;;;;;;;;-2.50;99.90;;;;;;4940652;28;19926;-74
2022/03/07 07:21:07;;;;;;;;;;;-2.40;99.90;;;;;;4956382;28;19929;-73
2022/03/07 07:23:46;;;;;;;;;;;-2.40;99.90;;;;;;4956541;28;20399;-77
2022/03/07 07:26:20;;;;;;;;;;;-2.30;99.90;;;;;;4956464;28;19926;-74
2022/03/07 07:28:46;;;;;;;;;;;-2.30;99.90;;;;;;4972201;28;19985;-74
2022/03/07 07:31:11;;;;;;;;;;;-2.30;99.90;;;;;;4963930;28;19929;-74
2022/03/07 07:33:40;;;;;;;;;;;-2.30;99.90;;;;;;4960105;28;19933;-74
2022/03/07 07:36:05;;;;;;;;;;;-2.30;99.90;;;;;;4960046;28;19983;-74
2022/03/07 07:38:31;;;;;;;;;;;-2.30;99.90;;;;;;4960010;28;19929;-74
2022/03/07 07:40:56;;;;;;;;;;;-2.30;99.90;;;;;;4959003;28;20365;-74
2022/03/07 07:43:22;;;;;;;;;;;-2.30;99.90;;;;;;4959581;28;19933;-74
2022/03/07 07:45:47;;;;;;;;;;;-2.20;99.90;;;;;;4959550;28;19941;-74
2022/03/07 07:48:13;;;;;;;;;;;-2.10;99.90;;;;;;4976058;28;20020;-74
2022/03/07 07:50:38;;;;;;;;;;;-2.00;99.90;;;;;;4960204;28;19944;-74
2022/03/07 07:53:06;;;;;;;;;;;-1.80;99.90;;;;;;4959811;28;19937;-74
2022/03/07 07:55:32;;;;;;;;;;;-1.50;99.90;;;;;;4959545;28;20027;-74
2022/03/07 07:57:57;;;;;;;;;;;-1.50;99.90;;;;;;4959652;28;19956;-74
2022/03/07 08:00:23;;;;;;;;;;;-1.40;99.90;;;;;;4960038;28;19947;-74
2022/03/07 08:02:49;;;;;;;;;;;-1.30;99.90;;;;;;4959167;28;19976;-74
2022/03/07 08:05:16;;;;;;;;;;;-1.30;99.90;;;;;;4959739;28;19947;-74
2022/03/07 08:07:42;;;;;;;;;;;-1.20;99.90;;;;;;4959415;28;19957;-74
2022/03/07 08:10:09;;;;;;;;;;;-1.10;99.90;;;;;;4959640;28;19921;-74
2022/03/07 08:12:34;;;;;;;;;;;-1.00;99.90;;;;;;4959658;28;19921;-74
2022/03/07 08:15:12;;;;;;;;;;;-0.90;99.90;;;;;;4959358;28;20367;-74
2022/03/07 08:17:43;;;;;;;;;;;-0.70;99.90;;;;;;4959324;28;19928;-74
2022/03/07 08:20:09;;;;;;;;;;;-0.60;99.90;;;;;;4975450;28;19926;-74
2022/03/07 08:22:34;;;;;;;;;;;-0.60;99.90;;;;;;4959059;28;20440;-74
2022/03/07 08:25:02;;;;;;;;;;;-0.50;99.90;;;;;;4958986;28;22695;-74
2022/03/07 08:27:27;;;;;;;;;;;-0.50;99.90;;;;;;4959129;28;19922;-74
2022/03/07 08:29:53;;;;;;;;;;;-0.30;99.90;;;;;;4975056;28;19922;-74
2022/03/07 08:32:18;;;;;;;;;;;-0.20;99.90;;;;;;4959281;28;19922;-74
2022/03/07 08:34:44;;;;;;;;;;;0.00;99.90;;;;;;4959038;28;19922;-74
2022/03/07 08:37:09;;;;;;;;;;;0.10;99.90;;;;;;4975099;28;19929;-74
2022/03/07 08:39:35;;;;;;;;;;;0.30;99.90;;;;;;4958855;28;19922;-74
2022/03/07 08:42:00;;;;;;;;;;;0.40;99.90;;;;;;4959008;28;19929;-74
2022/03/07 08:44:26;;;;;;;;;;;0.50;99.90;;;;;;4958494;28;19926;-74
2022/03/07 08:46:51;;;;;;;;;;;0.50;99.90;;;;;;4958909;28;20384;-74
2022/03/07 08:49:17;;;;;;;;;;;0.60;99.90;;;;;;4975053;28;19929;-74
2022/03/07 08:51:44;;;;;;;;;;;0.70;99.90;;;;;;4960834;28;19925;-74
2022/03/07 08:54:10;;;;;;;;;;;0.80;99.90;;;;;;4962126;28;20447;-74
2022/03/07 08:56:35;;;;;;;;;;;0.90;99.90;;;;;;4978278;28;19921;-74
2022/03/07 08:59:02;;;;;;;;;;;1.00;99.90;;;;;;4978320;28;19921;-74
2022/03/07 09:01:27;;;;;;;;;;;1.20;99.90;;;;;;4978400;28;19921;-74
2022/03/07 09:03:53;;;;;;;;;;;1.30;99.90;;;;;;4978385;28;19936;-74
2022/03/07 09:06:18;;;;;;;;;;;1.40;99.90;;;;;;4978478;28;20380;-74
2022/03/07 09:08:44;;;;;;;;;;;1.60;99.90;;;;;;4962087;28;19979;-74
2022/03/07 09:11:09;;;;;;;;;;;1.80;99.90;;;;;;4962111;28;19922;-74
2022/03/07 09:13:35;;;;;;;;;;;2.00;99.90;;;;;;4977867;28;19922;-74
2022/03/07 09:16:00;;;;;;;;;;;2.30;99.90;;;;;;4978401;28;19969;-74
2022/03/07 09:18:27;;;;;;;;;;;2.90;99.90;;;;;;4962302;28;19922;-74
2022/03/07 09:20:52;;;;;;;;;;;4.00;99.90;;;;;;4962207;28;20406;-74
2022/03/07 09:23:18;;;;;;;;;;;4.90;99.90;;;;;;4961731;28;19926;-74
2022/03/07 09:25:43;;;;;;;;;;;6.00;99.90;;;;;;4962157;28;19925;-74
2022/03/07 09:28:09;;;;;;;;;;;7.00;99.90;;;;;;4962119;28;19921;-74
2022/03/07 09:30:34;;;;;;;;;;;7.70;99.90;;;;;;4961713;28;19926;-74
2022/03/07 09:33:03;;;;;;;;;;;8.30;99.90;;;;;;4961591;28;20079;-74
2022/03/07 09:35:32;;;;;;;;;;;8.90;99.90;;;;;;4961626;28;19929;-74
2022/03/07 09:37:58;;;;;;;;;;;9.50;98.50;;;;;;4995085;28;19929;-74
2022/03/07 09:40:24;;;;;;;;;;;9.90;99.90;;;;;;4978192;28;19922;-74
2022/03/07 09:42:50;;;;;;;;;;;9.80;99.90;;;;;;4977351;28;20025;-74
2022/03/07 09:45:16;;;;;;;;;;;9.70;99.90;;;;;;4977748;28;19945;-74
2022/03/07 09:47:41;;;;;;;;;;;9.80;99.90;;;;;;4977402;28;20404;-74
2022/03/07 09:50:09;;;;;;;;;;;10.10;99.90;;;;;;4961438;28;19933;-74
2022/03/07 09:52:35;;;;;;;;;;;10.30;99.90;;;;;;4961443;28;19979;-74
2022/03/07 09:55:00;;;;;;;;;;;10.50;99.90;;;;;;4961123;28;19964;-74
2022/03/07 09:57:26;;;;;;;;;;;10.90;92.90;;;;;;4961469;28;19921;-74
2022/03/07 09:59:51;;;;;;;;;;;11.40;94.90;;;;;;4961280;28;19929;-74
2022/03/07 10:02:24;;;;;;;;;;;11.60;99.90;;;;;;4960607;28;20008;-74
2022/03/07 10:04:50;;;;;;;;;;;11.60;93.10;;;;;;4977304;28;20005;-74
2022/03/07 10:07:18;;;;;;;;;;;11.70;99.90;;;;;;4960970;28;20361;-74
2022/03/07 10:09:46;;;;;;;;;;;11.90;91.90;;;;;;4961148;28;19929;-75
2022/03/07 10:12:12;;;;;;;;;;;12.40;89.10;;;;;;4961202;28;20423;-75
2022/03/07 10:14:42;;;;;;;;;;;13.00;99.90;;;;;;4960814;28;19976;-75
2022/03/07 10:17:18;;;;;;;;;;;13.20;88.10;;;;;;4961009;28;19972;-75
2022/03/07 10:19:44;;;;;;;;;;;13.10;78.80;;;;;;4976667;28;19922;-75
2022/03/07 10:22:13;;;;;;;;;;;13.10;69.00;;;;;;4960582;28;19922;-75
2022/03/07 10:24:38;;;;;;;;;;;13.50;97.30;;;;;;4960427;28;19922;-75
2022/03/07 10:27:04;;;;;;;;;;;13.70;85.50;;;;;;4977277;28;20292;-75
2022/03/07 10:29:29;;;;;;;;;;;13.90;90.60;;;;;;4960683;28;19922;-75
2022/03/07 10:31:55;;;;;;;;;;;14.00;70.80;;;;;;4960695;28;19922;-75
2022/03/07 10:34:20;;;;;;;;;;;14.30;90.30;;;;;;4993618;28;19929;-75
2022/03/07 10:36:47;;;;;;;;;;;14.00;70.90;;;;;;4976015;28;19929;-75
2022/03/07 10:39:15;;;;;;;;;;;13.50;83.10;;;;;;4960393;28;19930;-75
2022/03/07 10:41:44;;;;;;;;;;;12.50;71.00;;;;;;4960877;28;19921;-75
2022/03/07 10:44:24;;;;;;;;;;;12.20;79.80;;;;;;4960221;28;20399;-75
2022/03/07 10:46:50;;;;;;;;;;;12.40;91.10;;;;;;4960134;28;19925;-75
2022/03/07 10:49:18;;;;;;;;;;;11.90;74.40;;;;;;4960186;28;19921;-75
2022/03/07 10:51:53;;;;;;;;;;;11.50;80.00;;;;;;4993620;28;20399;-75
2022/03/07 10:54:20;;;;;;;;;;;11.50;69.30;;;;;;4959857;28;20400;-75
2022/03/07 10:56:50;;;;;;;;;;;11.20;73.70;;;;;;4960077;28;19947;-74
2022/03/07 10:59:25;;;;;;;;;;;10.90;82.70;;;;;;4959740;28;19922;-74
2022/03/07 11:01:57;;;;;;;;;;;11.20;92.00;;;;;;4976192;28;19929;-74
2022/03/07 11:04:22;;;;;;;;;;;11.20;83.40;;;;;;4959804;28;19925;-74
2022/03/07 11:06:48;;;;;;;;;;;12.00;80.10;;;;;;4959730;28;19937;-75
2022/03/07 11:09:13;;;;;;;;;;;13.00;73.60;;;;;;4975901;28;19928;-75
2022/03/07 11:11:39;;;;;;;;;;;13.80;72.70;;;;;;4976186;28;19926;-75
2022/03/07 11:14:05;;;;;;;;;;;14.10;61.70;;;;;;4975566;28;19922;-75
2022/03/07 11:16:31;;;;;;;;;;;13.90;59.30;;;;;;4959815;28;19929;-75
2022/03/07 11:18:58;;;;;;;;;;;13.40;60.70;;;;;;4959612;28;19925;-75
2022/03/07 11:21:25;;;;;;;;;;;12.80;59.70;;;;;;4993398;28;19922;-75
2022/03/07 11:23:51;;;;;;;;;;;12.70;59.70;;;;;;4959276;28;20016;-74
2022/03/07 11:26:20;;;;;;;;;;;12.20;62.70;;;;;;4976040;28;20057;-74
2022/03/07 11:28:47;;;;;;;;;;;12.00;64.50;;;;;;4959499;28;20013;-74
2022/03/07 11:31:22;;;;;;;;;;;12.00;64.00;;;;;;4975773;28;20415;-75
2022/03/07 11:33:49;;;;;;;;;;;12.40;62.30;;;;;;4959447;28;20010;-75
2022/03/07 11:36:16;;;;;;;;;;;12.90;64.90;;;;;;4975380;28;19929;-75
2022/03/07 11:38:49;;;;;;;;;;;13.40;58.50;;;;;;4959370;28;19961;-75
2022/03/07 11:41:21;;;;;;;;;;;13.40;57.40;;;;;;4959276;28;19977;-75
2022/03/07 11:43:48;;;;;;;;;;;13.30;54.10;;;;;;4958957;28;19932;-75
2022/03/07 11:46:21;;;;;;;;;;;13.20;55.30;;;;;;4959612;28;20266;-75
2022/03/07 11:48:47;;;;;;;;;;;13.20;56.40;;;;;;4959612;28;19945;-75
2022/03/07 11:51:20;;;;;;;;;;;13.30;54.30;;;;;;4975555;28;20384;-75
2022/03/07 11:53:46;;;;;;;;;;;13.20;56.30;;;;;;4975023;28;20023;-75
2022/03/07 11:56:35;;;;;;;;;;;13.30;55.90;;;;;;4975489;28;20016;-75
2022/03/07 11:59:02;;;;;;;;;;;13.70;55.70;;;;;;4967296;28;20340;-75
2022/03/07 12:01:30;;;;;;;;;;;14.10;55.00;;;;;;4975280;28;19929;-75
2022/03/07 12:04:05;;;;;;;;;;;14.30;54.10;;;;;;4974853;28;20020;-75
2022/03/07 12:06:39;;;;;;;;;;;14.70;55.50;;;;;;4975338;28;19922;-75
2022/03/07 12:09:07;;;;;;;;;;;15.10;52.50;;;;;;4975204;28;19921;-75
2022/03/07 12:11:34;;;;;;;;;;;14.80;51.70;;;;;;4975163;28;19929;-75
2022/03/07 12:14:04;;;;;;;;;;;14.60;53.50;;;;;;4959002;28;19922;-75
2022/03/07 12:16:35;;;;;;;;;;;14.60;53.30;;;;;;4975263;28;19922;-75
2022/03/07 12:19:06;;;;;;;;;;;14.80;52.20;;;;;;4959121;28;20251;-75
2022/03/07 12:21:32;;;;;;;;;;;15.00;49.40;;;;;;4958914;28;20296;-75
2022/03/07 12:23:58;;;;;;;;;;;15.30;50.00;;;;;;4974887;28;19925;-75
2022/03/07 12:26:24;;;;;;;;;;;15.90;48.70;;;;;;4976694;28;19922;-75
2022/03/07 12:28:49;;;;;;;;;;;16.20;49.70;;;;;;4979046;28;19922;-75
2022/03/07 12:31:15;;;;;;;;;;;16.60;49.40;;;;;;4962663;28;19922;-75
2022/03/07 12:33:45;;;;;;;;;;;17.00;48.20;;;;;;4978522;28;19928;-75
2022/03/07 12:36:15;;;;;;;;;;;17.20;46.10;;;;;;4963027;28;19929;-75
2022/03/07 12:38:50;;;;;;;;;;;17.20;48.10;;;;;;4979059;28;19957;-75
2022/03/07 12:41:18;;;;;;;;;;;17.40;46.00;;;;;;4978621;28;19922;-75
2022/03/07 12:43:45;;;;;;;;;;;17.30;45.00;;;;;;4978202;28;19926;-75
2022/03/07 12:46:11;;;;;;;;;;;16.80;45.20;;;;;;4962269;28;19929;-75
2022/03/07 12:48:37;;;;;;;;;;;16.40;46.10;;;;;;4978832;28;20038;-75
2022/03/07 12:51:04;;;;;;;;;;;16.20;46.30;;;;;;4978296;28;19929;-75
2022/03/07 12:53:30;;;;;;;;;;;16.00;44.00;;;;;;4962450;28;19928;-75
2022/03/07 12:56:03;;;;;;;;;;;15.60;45.50;;;;;;4978760;28;19922;-74
2022/03/07 12:58:28;;;;;;;;;;;15.20;46.20;;;;;;4962556;28;19922;-74
2022/03/07 13:01:02;;;;;;;;;;;14.70;48.40;;;;;;4978791;28;19933;-74
2022/03/07 13:03:34;;;;;;;;;;;14.50;48.70;;;;;;4978099;28;19925;-74
2022/03/07 13:06:00;;;;;;;;;;;14.90;48.10;;;;;;4978518;28;19932;-75
2022/03/07 13:08:26;;;;;;;;;;;15.30;47.20;;;;;;4978176;28;19922;-75
2022/03/07 13:10:51;;;;;;;;;;;15.10;46.40;;;;;;4962566;28;19925;-75
2022/03/07 13:13:17;;;;;;;;;;;15.00;47.50;;;;;;4977703;28;19973;-75
2022/03/07 13:15:43;;;;;;;;;;;14.90;46.70;;;;;;4961868;28;19921;-75
2022/03/07 13:18:08;;;;;;;;;;;14.40;47.40;;;;;;4961825;28;19928;-75
2022/03/07 13:20:34;;;;;;;;;;;14.30;47.60;;;;;;4977967;28;20108;-75
2022/03/07 13:23:04;;;;;;;;;;;14.40;47.70;;;;;;4961644;28;20025;-75
2022/03/07 13:25:37;;;;;;;;;;;14.70;47.20;;;;;;4961597;28;19976;-75
2022/03/07 13:28:03;;;;;;;;;;;14.70;47.20;;;;;;4995190;28;20006;-75
2022/03/07 13:30:28;;;;;;;;;;;14.90;47.90;;;;;;4961888;28;20350;-75
2022/03/07 13:33:02;;;;;;;;;;;15.30;46.40;;;;;;5015340;23;19933;-78
2022/03/07 13:35:27;;;;;;;;;;;15.20;47.50;;;;;;4976884;28;20441;-77
2022/03/07 13:37:53;;;;;;;;;;;15.30;45.10;;;;;;4975666;28;19922;-77
2022/03/07 13:40:21;;;;;;;;;;;15.10;45.70;;;;;;4976878;28;19922;-77
2022/03/07 13:42:49;;;;;;;;;;;14.90;46.20;;;;;;4989105;28;19940;-77
2022/03/07 13:45:19;;;;;;;;;;;15.20;46.20;;;;;;4993053;28;19923;-77
2022/03/07 13:47:45;;;;;;;;;;;15.40;46.20;;;;;;4992767;28;19930;-77
2022/03/07 13:50:12;;;;;;;;;;;15.70;46.20;;;;;;4992682;28;19929;-77
2022/03/07 13:52:39;;;;;;;;;;;15.80;45.50;;;;;;4992359;28;20295;-77
2022/03/07 13:55:06;;;;;;;;;;;15.90;44.30;;;;;;4976374;28;19936;-77
2022/03/07 13:57:36;;;;;;;;;;;15.90;45.60;;;;;;4976362;28;19922;-77
2022/03/07 14:00:08;;;;;;;;;;;16.10;45.60;;;;;;4992512;28;20456;-77
2022/03/07 14:02:44;;;;;;;;;;;16.10;45.00;;;;;;4992488;28;19956;-77
2022/03/07 14:05:10;;;;;;;;;;;16.00;45.60;;;;;;4992677;28;20340;-77
2022/03/07 14:07:36;;;;;;;;;;;15.90;45.80;;;;;;4992353;28;19992;-77
2022/03/07 14:10:06;;;;;;;;;;;15.80;46.30;;;;;;4992781;28;19921;-77
2022/03/07 14:12:33;;;;;;;;;;;15.70;46.20;;;;;;4992178;28;20013;-77
2022/03/07 14:14:59;;;;;;;;;;;15.40;46.00;;;;;;4992314;28;20381;-77